Airport View

Enter AWOS ICAO identifier for current METAR.

ex. KFNL

KCIN 011225Z AUTO 32010KT 10SM CLR 07/02 A3016 RMK AO2

1 Oct 2020 12:34

Frequency: 118.025

Phone: 712-792-2306

Other Area AWOS: KADU - KDNS - KPRO - KHNR

TAF KFOD 011125Z 0112/0212 32010G18KT P6SM SCT100 FM011600 33014G23KT P6SM BKN040 FM020000 33008KT P6SM FEW150